createdAt,value
2022-08-30T00:02:00.211Z,16.80
2022-08-30T00:04:27.018Z,16.80
2022-08-30T00:06:53.816Z,16.70
2022-08-30T00:09:20.580Z,16.60
2022-08-30T00:11:47.356Z,16.60
2022-08-30T00:14:14.179Z,16.60
2022-08-30T00:16:40.993Z,16.50
2022-08-30T00:19:10.064Z,16.50
2022-08-30T00:21:36.867Z,16.50
2022-08-30T00:24:05.088Z,16.50
2022-08-30T00:26:31.922Z,16.40
2022-08-30T00:28:59.063Z,16.40
2022-08-30T00:31:25.900Z,16.40
2022-08-30T00:33:52.725Z,16.40
2022-08-30T00:36:19.460Z,16.40
2022-08-30T00:38:46.208Z,16.30
2022-08-30T00:41:13.001Z,16.30
2022-08-30T00:43:39.764Z,16.30
2022-08-30T00:46:08.685Z,16.20
2022-08-30T00:48:36.769Z,16.20
2022-08-30T00:51:05.645Z,16.20
2022-08-30T00:53:34.302Z,16.20
2022-08-30T00:56:01.488Z,16.20
2022-08-30T00:58:29.780Z,16.20
2022-08-30T01:00:57.548Z,16.20
2022-08-30T01:03:24.415Z,16.20
2022-08-30T01:05:51.739Z,16.10
2022-08-30T01:08:20.483Z,16.10
2022-08-30T01:10:47.278Z,16.10
2022-08-30T01:13:14.102Z,16.00
2022-08-30T01:15:41.790Z,16.10
2022-08-30T01:18:08.712Z,16.10
2022-08-30T01:20:38.572Z,16.10
2022-08-30T01:23:06.633Z,16.10
2022-08-30T01:25:33.398Z,16.00
2022-08-30T01:28:07.604Z,16.00
2022-08-30T01:30:34.463Z,16.00
2022-08-30T01:33:02.027Z,16.00
2022-08-30T01:35:28.924Z,15.90
2022-08-30T01:37:56.499Z,15.90
2022-08-30T01:40:23.440Z,15.90
2022-08-30T01:42:50.259Z,15.90
2022-08-30T01:45:17.042Z,15.90
2022-08-30T01:47:43.833Z,15.90
2022-08-30T01:50:10.873Z,15.90
2022-08-30T01:52:37.668Z,15.90
2022-08-30T01:55:05.013Z,15.90
2022-08-30T01:57:31.799Z,15.90
2022-08-30T01:59:58.565Z,15.90
2022-08-30T02:02:26.167Z,15.90
2022-08-30T02:04:53.619Z,15.90
2022-08-30T02:07:20.754Z,15.90
2022-08-30T02:09:47.613Z,15.80
2022-08-30T02:12:14.363Z,15.80
2022-08-30T02:14:41.148Z,15.80
2022-08-30T02:17:08.671Z,15.80
2022-08-30T02:19:35.518Z,15.80
2022-08-30T02:22:02.338Z,15.80
2022-08-30T02:24:29.184Z,15.80
2022-08-30T02:26:56.037Z,15.70
2022-08-30T02:29:23.026Z,15.70
2022-08-30T02:31:49.859Z,15.80
2022-08-30T02:34:16.832Z,15.70
2022-08-30T02:36:43.600Z,15.70
2022-08-30T02:39:10.606Z,15.70
2022-08-30T02:41:38.417Z,15.60
2022-08-30T02:44:05.688Z,15.60
2022-08-30T02:46:33.267Z,15.60
2022-08-30T02:49:13.081Z,15.60
2022-08-30T02:51:48.362Z,15.60
2022-08-30T02:54:19.890Z,15.50
2022-08-30T02:56:47.793Z,15.50
2022-08-30T02:59:15.075Z,15.50
2022-08-30T03:01:41.926Z,15.40
2022-08-30T03:04:09.382Z,15.40
2022-08-30T03:06:36.228Z,15.30
2022-08-30T03:09:03.056Z,15.30
2022-08-30T03:11:29.883Z,15.20
2022-08-30T03:13:56.767Z,15.20
2022-08-30T03:16:23.647Z,15.20
2022-08-30T03:18:50.711Z,15.20
2022-08-30T03:21:17.608Z,15.10
2022-08-30T03:23:44.443Z,15.10
2022-08-30T03:26:13.232Z,15.10
2022-08-30T03:28:40.527Z,15.00
2022-08-30T03:31:07.408Z,15.00
2022-08-30T03:33:34.232Z,15.00
2022-08-30T03:36:02.228Z,15.00
2022-08-30T03:38:29.030Z,15.00
2022-08-30T03:40:55.801Z,14.90
2022-08-30T03:43:23.692Z,14.90
2022-08-30T03:45:50.537Z,14.90
2022-08-30T03:48:17.931Z,14.90
2022-08-30T03:50:44.682Z,14.90
2022-08-30T03:53:11.420Z,14.80
2022-08-30T03:55:38.199Z,14.80
2022-08-30T03:58:04.998Z,14.80
2022-08-30T04:00:31.846Z,14.80
2022-08-30T04:02:58.572Z,14.80
2022-08-30T04:05:25.392Z,14.80
2022-08-30T04:07:52.521Z,14.70
2022-08-30T04:10:21.367Z,14.70
2022-08-30T04:12:49.829Z,14.70
2022-08-30T04:15:17.791Z,14.70
2022-08-30T04:17:44.670Z,14.70
2022-08-30T04:20:11.517Z,14.70
2022-08-30T04:22:38.338Z,14.60
2022-08-30T04:25:05.574Z,14.60
2022-08-30T04:27:32.633Z,14.60
2022-08-30T04:29:59.659Z,14.60
2022-08-30T04:32:26.433Z,14.60
2022-08-30T04:34:56.967Z,14.60
2022-08-30T04:37:23.721Z,14.60
2022-08-30T04:39:50.856Z,14.60
2022-08-30T04:42:18.663Z,14.50
2022-08-30T04:44:45.536Z,14.50
2022-08-30T04:47:12.340Z,14.60
2022-08-30T04:49:39.215Z,14.60
2022-08-30T04:52:08.892Z,14.60
2022-08-30T04:54:35.642Z,14.60
2022-08-30T04:57:02.456Z,14.60
2022-08-30T04:59:29.255Z,14.70
2022-08-30T05:01:56.065Z,14.70
2022-08-30T05:04:22.864Z,14.70
2022-08-30T05:06:49.704Z,14.80
2022-08-30T05:09:16.526Z,14.80
2022-08-30T05:11:43.500Z,14.80
2022-08-30T05:14:10.284Z,14.90
2022-08-30T05:16:37.139Z,15.00
2022-08-30T05:19:03.946Z,15.00
2022-08-30T05:21:30.765Z,15.00
2022-08-30T05:23:58.045Z,15.10
2022-08-30T05:26:28.870Z,15.10
2022-08-30T05:28:55.745Z,15.20
2022-08-30T05:31:24.392Z,15.20
2022-08-30T05:33:51.416Z,15.20
2022-08-30T05:36:18.661Z,15.30
2022-08-30T05:38:45.529Z,15.30
2022-08-30T05:41:12.550Z,15.40
2022-08-30T05:43:39.760Z,15.40
2022-08-30T05:46:07.232Z,15.40
2022-08-30T05:48:34.085Z,15.50
2022-08-30T05:51:01.648Z,15.50
2022-08-30T05:53:28.470Z,15.50
2022-08-30T05:55:55.298Z,15.60
2022-08-30T05:58:22.158Z,15.60
2022-08-30T06:00:48.904Z,15.60
2022-08-30T06:03:15.738Z,15.70
2022-08-30T06:05:42.608Z,15.70
2022-08-30T06:08:09.608Z,15.70
2022-08-30T06:10:36.436Z,15.80
2022-08-30T06:13:03.285Z,15.80
2022-08-30T06:15:30.081Z,15.80
2022-08-30T06:17:56.811Z,15.80
2022-08-30T06:20:23.658Z,15.90
2022-08-30T06:22:50.491Z,15.80
2022-08-30T06:25:17.469Z,15.90
2022-08-30T06:27:44.260Z,15.90
2022-08-30T06:30:11.112Z,15.90
2022-08-30T06:32:38.736Z,16.00
2022-08-30T06:35:05.833Z,16.00
2022-08-30T06:37:33.192Z,16.00
2022-08-30T06:40:00.364Z,16.00
2022-08-30T06:42:34.005Z,16.00
2022-08-30T06:45:00.928Z,16.10
2022-08-30T06:47:28.250Z,16.10
2022-08-30T06:49:55.074Z,16.20
2022-08-30T06:52:21.880Z,16.10
2022-08-30T06:54:48.670Z,16.20
2022-08-30T06:57:17.980Z,16.30
2022-08-30T06:59:44.790Z,16.30
2022-08-30T07:02:11.765Z,16.40
2022-08-30T07:04:38.862Z,16.50
2022-08-30T07:07:05.647Z,16.50
2022-08-30T07:12:04.279Z,16.70
2022-08-30T07:14:31.077Z,16.60
2022-08-30T07:16:57.890Z,16.70
2022-08-30T07:19:25.817Z,16.70
2022-08-30T07:21:52.622Z,16.70
2022-08-30T07:24:19.559Z,16.90
2022-08-30T07:26:49.074Z,16.90
2022-08-30T07:29:16.154Z,16.90
2022-08-30T07:31:43.042Z,17.10
2022-08-30T07:34:09.891Z,17.20
2022-08-30T07:36:37.658Z,17.20
2022-08-30T07:39:04.753Z,17.30
2022-08-30T07:41:32.093Z,17.30
2022-08-30T07:43:58.886Z,17.40
2022-08-30T07:46:25.836Z,17.50
2022-08-30T07:48:54.433Z,17.50
2022-08-30T07:51:22.036Z,17.50
2022-08-30T07:53:48.816Z,17.50
2022-08-30T07:56:15.643Z,17.60
2022-08-30T07:58:42.417Z,17.50
2022-08-30T08:01:09.922Z,17.60
2022-08-30T08:03:36.978Z,17.70
2022-08-30T08:06:04.079Z,17.80
2022-08-30T08:08:30.824Z,17.90
2022-08-30T08:10:57.693Z,18.00
2022-08-30T08:13:27.965Z,18.10
2022-08-30T08:15:55.542Z,18.20
2022-08-30T08:18:22.364Z,18.30
2022-08-30T08:20:49.140Z,18.40
2022-08-30T08:23:16.438Z,18.50
2022-08-30T08:25:43.559Z,18.50
2022-08-30T08:28:10.395Z,18.50
2022-08-30T08:30:37.237Z,18.60
2022-08-30T08:33:05.200Z,18.80
2022-08-30T08:35:32.451Z,18.80
2022-08-30T08:37:59.656Z,18.90
2022-08-30T08:40:26.491Z,19.00
2022-08-30T08:42:56.354Z,19.00
2022-08-30T08:45:25.813Z,19.10
2022-08-30T08:48:12.151Z,19.10
2022-08-30T08:51:02.117Z,19.20
2022-08-30T08:53:51.756Z,19.10
2022-08-30T08:56:18.722Z,19.10
2022-08-30T08:58:49.843Z,19.20
2022-08-30T09:01:17.659Z,19.20
2022-08-30T09:03:44.611Z,19.20
2022-08-30T09:06:22.074Z,19.30
2022-08-30T09:08:48.985Z,19.30
2022-08-30T09:11:21.611Z,19.30
2022-08-30T09:13:54.418Z,19.40
2022-08-30T09:16:39.968Z,19.50
2022-08-30T09:19:06.810Z,19.60
2022-08-30T09:21:34.569Z,19.80
2022-08-30T09:24:02.114Z,19.80
2022-08-30T09:26:35.210Z,19.90
2022-08-30T09:29:02.335Z,20.00
2022-08-30T09:31:32.808Z,20.10
2022-08-30T09:34:18.580Z,20.20
2022-08-30T09:36:46.800Z,20.30
2022-08-30T09:39:33.917Z,20.40
2022-08-30T09:42:14.545Z,20.60
2022-08-30T09:44:41.329Z,20.70
2022-08-30T09:47:08.105Z,20.70
2022-08-30T09:49:36.591Z,20.60
2022-08-30T09:52:16.978Z,20.60
2022-08-30T09:54:46.586Z,20.80
2022-08-30T09:57:33.844Z,20.80
2022-08-30T10:00:21.593Z,20.90
2022-08-30T10:02:51.736Z,21.00
2022-08-30T10:05:42.753Z,21.00
2022-08-30T10:08:09.868Z,21.20
2022-08-30T10:10:48.631Z,21.40
2022-08-30T10:13:28.765Z,21.30
2022-08-30T10:16:01.629Z,21.30
2022-08-30T10:18:47.342Z,21.30
2022-08-30T10:21:19.362Z,21.30
2022-08-30T10:23:48.122Z,21.30
2022-08-30T10:26:34.451Z,21.40
2022-08-30T10:29:10.288Z,21.30
2022-08-30T10:31:42.063Z,21.10
2022-08-30T10:34:10.929Z,21.10
2022-08-30T10:36:43.070Z,21.20
2022-08-30T10:39:14.930Z,21.40
2022-08-30T10:41:43.408Z,21.40
2022-08-30T10:44:13.279Z,21.40
2022-08-30T10:46:45.774Z,21.40
2022-08-30T10:49:14.637Z,21.50
2022-08-30T10:51:52.997Z,21.50
2022-08-30T10:54:35.005Z,21.60
2022-08-30T10:57:01.749Z,21.70
2022-08-30T10:59:28.689Z,21.70
2022-08-30T11:01:56.572Z,21.70
2022-08-30T11:04:39.935Z,21.70
2022-08-30T11:07:20.664Z,21.60
2022-08-30T11:09:50.420Z,21.60
2022-08-30T11:12:33.568Z,21.70
2022-08-30T11:15:00.497Z,21.80
2022-08-30T11:17:50.522Z,21.80
2022-08-30T11:20:30.895Z,21.90
2022-08-30T11:23:10.672Z,22.00
2022-08-30T11:25:47.861Z,22.00
2022-08-30T11:28:38.619Z,22.10
2022-08-30T11:31:05.907Z,22.30
2022-08-30T11:33:46.264Z,22.50
2022-08-30T11:36:37.435Z,22.60
2022-08-30T11:39:07.826Z,22.60
2022-08-30T11:41:47.768Z,22.70
2022-08-30T11:44:21.808Z,22.80
2022-08-30T11:46:49.705Z,22.80
2022-08-30T11:49:19.603Z,23.00
2022-08-30T11:52:28.434Z,23.30
2022-08-30T11:54:59.144Z,23.30
2022-08-30T11:57:42.753Z,23.40
2022-08-30T12:00:11.640Z,23.60
2022-08-30T12:02:47.798Z,23.60
2022-08-30T12:05:47.998Z,23.40
2022-08-30T12:08:21.351Z,23.10
2022-08-30T12:11:09.251Z,22.90
2022-08-30T12:13:43.044Z,22.80
2022-08-30T12:16:12.250Z,22.80
2022-08-30T12:18:39.367Z,22.80
2022-08-30T12:21:28.214Z,22.70
2022-08-30T12:24:03.914Z,22.70
2022-08-30T12:26:32.745Z,22.80
2022-08-30T12:29:08.143Z,22.90
2022-08-30T12:31:39.317Z,23.00
2022-08-30T12:34:07.486Z,23.00
2022-08-30T12:36:39.733Z,22.90
2022-08-30T12:39:07.550Z,22.90
2022-08-30T12:41:34.603Z,22.90
2022-08-30T12:44:12.603Z,22.90
2022-08-30T12:46:40.769Z,22.90
2022-08-30T12:49:07.631Z,22.90
2022-08-30T12:51:37.180Z,23.00
2022-08-30T12:54:05.590Z,22.90
2022-08-30T12:56:49.831Z,22.80
2022-08-30T12:59:36.658Z,22.80
2022-08-30T13:02:22.423Z,22.80
2022-08-30T13:04:49.819Z,22.70
2022-08-30T13:07:25.878Z,22.70
2022-08-30T13:09:58.737Z,22.70
2022-08-30T13:12:26.302Z,22.70
2022-08-30T13:14:53.889Z,22.70
2022-08-30T13:17:22.245Z,22.70
2022-08-30T13:20:02.445Z,22.70
2022-08-30T13:22:32.594Z,22.80
2022-08-30T13:24:59.516Z,22.80
2022-08-30T13:27:26.347Z,22.90
2022-08-30T13:29:53.350Z,23.00
2022-08-30T13:32:20.315Z,23.10
2022-08-30T13:34:47.164Z,23.10
2022-08-30T13:40:04.884Z,23.20
2022-08-30T13:42:32.637Z,23.30
2022-08-30T13:44:59.612Z,23.30
2022-08-30T13:47:34.719Z,23.30
2022-08-30T13:50:01.825Z,23.10
2022-08-30T13:52:28.621Z,23.00
2022-08-30T13:54:55.782Z,23.00
2022-08-30T14:00:17.602Z,22.90
2022-08-30T14:02:50.090Z,22.80
2022-08-30T14:08:44.379Z,22.90
2022-08-30T14:10:55.871Z,22.90
2022-08-30T14:13:22.832Z,23.00
2022-08-30T14:16:26.580Z,23.10
2022-08-30T14:18:38.566Z,23.00
2022-08-30T14:21:05.396Z,23.20
2022-08-30T14:23:32.666Z,23.20
2022-08-30T14:26:02.468Z,23.30
2022-08-30T14:28:30.417Z,23.50
2022-08-30T14:30:57.561Z,23.40
2022-08-30T14:33:24.389Z,23.30
2022-08-30T14:35:51.270Z,23.30
2022-08-30T14:38:18.383Z,23.40
2022-08-30T14:40:45.480Z,23.40
2022-08-30T14:43:12.386Z,23.40
2022-08-30T14:45:39.777Z,23.40
2022-08-30T14:48:11.434Z,23.40
2022-08-30T14:50:39.229Z,23.50
2022-08-30T14:53:06.243Z,23.60
2022-08-30T14:55:34.032Z,23.40
2022-08-30T14:58:00.929Z,23.30
2022-08-30T15:00:27.813Z,23.20
2022-08-30T15:02:54.709Z,23.10
2022-08-30T15:05:21.596Z,22.90
2022-08-30T15:07:50.676Z,22.70
2022-08-30T15:10:21.023Z,22.70
2022-08-30T15:12:48.563Z,22.70
2022-08-30T15:15:15.883Z,22.70
2022-08-30T15:17:43.764Z,22.60
2022-08-30T15:20:12.654Z,22.60
2022-08-30T15:22:39.592Z,22.70
2022-08-30T15:25:08.323Z,22.70
2022-08-30T15:27:36.349Z,22.80
2022-08-30T15:30:04.195Z,22.80
2022-08-30T15:32:31.312Z,22.70
2022-08-30T15:35:00.294Z,22.70
2022-08-30T15:37:27.356Z,22.60
2022-08-30T15:39:54.162Z,22.60
2022-08-30T15:42:21.029Z,22.60
2022-08-30T15:44:51.345Z,22.70
2022-08-30T15:47:22.263Z,22.70
2022-08-30T15:49:53.948Z,22.80
2022-08-30T15:52:20.723Z,22.90
2022-08-30T15:54:48.732Z,22.90
2022-08-30T15:57:15.528Z,23.00
2022-08-30T15:59:42.734Z,22.90
2022-08-30T16:02:11.160Z,22.90
2022-08-30T16:04:38.039Z,22.80
2022-08-30T16:07:08.259Z,22.90
2022-08-30T16:09:35.359Z,22.90
2022-08-30T16:12:05.251Z,22.80
2022-08-30T16:14:32.226Z,22.80
2022-08-30T16:16:58.995Z,22.80
2022-08-30T16:19:25.846Z,22.70
2022-08-30T16:21:52.606Z,22.80
2022-08-30T16:24:22.742Z,22.80
2022-08-30T16:26:49.685Z,22.70
2022-08-30T16:29:17.613Z,22.70
2022-08-30T16:31:45.370Z,22.60
2022-08-30T16:34:14.942Z,22.60
2022-08-30T16:36:41.731Z,22.50
2022-08-30T16:39:09.701Z,22.50
2022-08-30T16:41:36.861Z,22.40
2022-08-30T16:44:05.239Z,22.40
2022-08-30T16:46:33.401Z,22.40
2022-08-30T16:49:02.336Z,22.40
2022-08-30T16:51:29.946Z,22.40
2022-08-30T16:53:57.548Z,22.30
2022-08-30T16:56:25.203Z,22.30
2022-08-30T16:59:00.753Z,22.30
2022-08-30T17:01:28.823Z,22.30
2022-08-30T17:03:55.775Z,22.20
2022-08-30T17:06:23.009Z,22.10
2022-08-30T17:08:49.787Z,22.10
2022-08-30T17:11:22.742Z,22.00
2022-08-30T17:13:49.547Z,21.90
2022-08-30T17:16:22.744Z,21.90
2022-08-30T17:18:55.366Z,21.90
2022-08-30T17:21:22.245Z,21.80
2022-08-30T17:23:50.184Z,21.90
2022-08-30T17:26:18.247Z,21.80
2022-08-30T17:28:45.721Z,21.70
2022-08-30T17:31:14.759Z,21.70
2022-08-30T17:33:43.202Z,21.70
2022-08-30T17:36:12.351Z,21.60
2022-08-30T17:38:44.857Z,21.60
2022-08-30T17:41:12.730Z,21.50
2022-08-30T17:43:39.523Z,21.50
2022-08-30T17:46:13.275Z,21.50
2022-08-30T17:48:40.168Z,21.40
2022-08-30T17:51:07.019Z,21.40
2022-08-30T17:53:34.755Z,21.40
2022-08-30T17:56:01.708Z,21.30
2022-08-30T17:58:28.948Z,21.30
2022-08-30T18:01:11.640Z,21.30
2022-08-30T18:03:39.059Z,21.20
2022-08-30T18:06:06.580Z,21.20
2022-08-30T18:08:33.458Z,21.10
2022-08-30T18:11:01.341Z,21.10
2022-08-30T18:13:28.174Z,21.10
2022-08-30T18:15:56.452Z,21.00
2022-08-30T18:18:23.652Z,20.90
2022-08-30T18:20:50.979Z,20.90
2022-08-30T18:23:18.067Z,20.80
2022-08-30T18:25:57.988Z,20.80
2022-08-30T18:28:24.769Z,20.80
2022-08-30T18:30:52.438Z,20.70
2022-08-30T18:33:20.015Z,20.60
2022-08-30T18:35:48.690Z,20.60
2022-08-30T18:38:15.534Z,20.50
2022-08-30T18:40:42.422Z,20.40
2022-08-30T18:43:10.553Z,20.40
2022-08-30T18:45:37.663Z,20.40
2022-08-30T18:48:05.582Z,20.30
2022-08-30T18:50:32.447Z,20.30
2022-08-30T18:52:59.552Z,20.20
2022-08-30T18:55:26.463Z,20.10
2022-08-30T18:57:54.003Z,20.10
2022-08-30T19:00:21.229Z,20.00
2022-08-30T19:02:48.001Z,20.00
2022-08-30T19:05:16.221Z,20.00
2022-08-30T19:07:43.982Z,19.90
2022-08-30T19:10:12.189Z,19.90
2022-08-30T19:12:39.597Z,19.90
2022-08-30T19:15:11.012Z,19.90
2022-08-30T19:17:39.337Z,19.80
2022-08-30T19:20:07.794Z,19.80
2022-08-30T19:23:05.872Z,19.70
2022-08-30T19:25:24.402Z,19.70
2022-08-30T19:27:51.457Z,19.70
2022-08-30T19:30:23.991Z,19.60
2022-08-30T19:32:56.469Z,19.60
2022-08-30T19:35:23.303Z,19.50
2022-08-30T19:37:51.281Z,19.50
2022-08-30T19:40:18.572Z,19.40
2022-08-30T19:45:32.391Z,19.30
2022-08-30T19:48:00.916Z,19.20
2022-08-30T19:50:28.492Z,19.20
2022-08-30T19:52:55.499Z,19.10
2022-08-30T19:55:28.205Z,19.10
2022-08-30T19:57:56.602Z,19.10
2022-08-30T20:00:23.622Z,19.00
2022-08-30T20:02:50.791Z,18.90
2022-08-30T20:05:18.958Z,18.90
2022-08-30T20:07:45.830Z,18.90
2022-08-30T20:10:13.680Z,18.90
2022-08-30T20:12:44.981Z,18.80
2022-08-30T20:15:14.679Z,18.70
2022-08-30T20:20:28.847Z,18.60
2022-08-30T20:22:55.642Z,18.60
2022-08-30T20:25:22.564Z,18.60
2022-08-30T20:27:49.376Z,18.60
2022-08-30T20:30:16.388Z,18.60
2022-08-30T20:32:46.935Z,18.60
2022-08-30T20:35:16.748Z,18.50
2022-08-30T20:37:44.466Z,18.40
2022-08-30T20:40:15.552Z,18.40
2022-08-30T20:42:46.509Z,18.40
2022-08-30T20:45:14.118Z,18.30
2022-08-30T20:47:41.329Z,18.30
2022-08-30T20:50:13.505Z,18.20
2022-08-30T20:52:40.826Z,18.30
2022-08-30T20:55:08.117Z,18.20
2022-08-30T20:57:35.009Z,18.30
2022-08-30T21:00:01.902Z,18.20
2022-08-30T21:02:28.778Z,18.20
2022-08-30T21:04:55.879Z,18.10
2022-08-30T21:07:22.667Z,18.10
2022-08-30T21:09:50.277Z,18.00
2022-08-30T21:12:17.077Z,18.00
2022-08-30T21:14:43.883Z,18.00
2022-08-30T21:17:10.707Z,18.00
2022-08-30T21:19:39.871Z,18.00
2022-08-30T21:22:10.571Z,17.90
2022-08-30T21:24:37.434Z,17.90
2022-08-30T21:27:04.241Z,17.90
2022-08-30T21:29:33.084Z,17.80
2022-08-30T21:31:59.977Z,17.80
2022-08-30T21:34:26.814Z,17.70
2022-08-30T21:36:53.747Z,17.70
2022-08-30T21:39:24.987Z,17.70
2022-08-30T21:41:54.533Z,17.70
2022-08-30T21:44:21.746Z,17.60
2022-08-30T21:46:48.721Z,17.60
2022-08-30T21:49:16.258Z,17.60
2022-08-30T21:51:43.825Z,17.60
2022-08-30T21:54:11.084Z,17.50
2022-08-30T21:56:38.251Z,17.50
2022-08-30T21:59:05.384Z,17.50
2022-08-30T22:01:32.503Z,17.40
2022-08-30T22:04:00.230Z,17.40
2022-08-30T22:06:31.026Z,17.40
2022-08-30T22:08:58.331Z,17.40
2022-08-30T22:11:25.495Z,17.30
2022-08-30T22:13:52.797Z,17.30
2022-08-30T22:16:19.775Z,17.30
2022-08-30T22:18:46.829Z,17.30
2022-08-30T22:21:14.179Z,17.30
2022-08-30T22:23:41.113Z,17.30
2022-08-30T22:26:08.656Z,17.30
2022-08-30T22:28:35.563Z,17.20
2022-08-30T22:31:02.843Z,17.20
2022-08-30T22:33:29.623Z,17.20
2022-08-30T22:35:56.509Z,17.20
2022-08-30T22:38:23.528Z,17.10
2022-08-30T22:40:50.907Z,17.10
2022-08-30T22:43:18.248Z,17.10
2022-08-30T22:45:45.191Z,17.10
2022-08-30T22:48:11.960Z,17.10
2022-08-30T22:50:38.911Z,17.10
2022-08-30T22:53:05.680Z,17.10
2022-08-30T22:55:32.615Z,17.00
2022-08-30T22:57:59.383Z,17.00
2022-08-30T23:00:26.143Z,17.00
2022-08-30T23:02:53.057Z,17.00
2022-08-30T23:05:20.720Z,17.00
2022-08-30T23:07:47.503Z,17.00
2022-08-30T23:10:14.470Z,17.00
2022-08-30T23:12:41.389Z,17.00
2022-08-30T23:15:09.403Z,17.00
2022-08-30T23:17:39.846Z,16.90
2022-08-30T23:20:07.475Z,16.90
2022-08-30T23:22:34.236Z,16.90
2022-08-30T23:25:19.554Z,16.80
2022-08-30T23:28:05.027Z,16.80
2022-08-30T23:30:50.699Z,16.80
2022-08-30T23:33:36.043Z,16.80
2022-08-30T23:36:30.786Z,16.80
2022-08-30T23:39:16.424Z,16.70
2022-08-30T23:42:01.696Z,16.70
2022-08-30T23:44:46.867Z,16.60
2022-08-30T23:47:31.981Z,16.60
2022-08-30T23:50:17.119Z,16.60
2022-08-30T23:53:02.560Z,16.60
2022-08-30T23:55:48.046Z,16.60
2022-08-30T23:58:33.354Z,16.50
